createdAt,value
2022-09-01T00:01:53.510Z,10.90
2022-09-01T00:04:27.149Z,10.87
2022-09-01T00:06:55.270Z,10.82
2022-09-01T00:09:24.133Z,10.75
2022-09-01T00:11:53.737Z,10.68
2022-09-01T00:14:30.663Z,10.66
2022-09-01T00:17:03.551Z,10.63
2022-09-01T00:19:30.374Z,10.63
2022-09-01T00:21:57.422Z,10.62
2022-09-01T00:24:26.300Z,10.65
2022-09-01T00:26:54.938Z,10.71
2022-09-01T00:29:22.658Z,10.75
2022-09-01T00:31:50.034Z,10.82
2022-09-01T00:34:17.383Z,10.86
2022-09-01T00:36:46.319Z,10.86
2022-09-01T00:39:13.751Z,10.88
2022-09-01T00:41:44.933Z,10.92
2022-09-01T00:44:16.038Z,10.91
2022-09-01T00:46:50.439Z,10.90
2022-09-01T00:49:40.581Z,10.92
2022-09-01T00:52:13.611Z,10.93
2022-09-01T00:54:47.937Z,10.90
2022-09-01T00:57:15.666Z,10.93
2022-09-01T00:59:51.869Z,10.93
2022-09-01T01:02:18.642Z,10.93
2022-09-01T01:04:48.003Z,10.93
2022-09-01T01:07:18.649Z,10.93
2022-09-01T01:09:46.543Z,10.94
2022-09-01T01:12:17.492Z,10.93
2022-09-01T01:14:50.476Z,10.89
2022-09-01T01:17:18.895Z,10.85
2022-09-01T01:20:05.115Z,10.87
2022-09-01T01:23:03.193Z,10.91
2022-09-01T01:25:34.695Z,10.91
2022-09-01T01:28:13.197Z,10.90
2022-09-01T01:30:43.461Z,10.91
2022-09-01T01:33:10.375Z,10.93
2022-09-01T01:35:38.417Z,10.89
2022-09-01T01:38:08.028Z,10.91
2022-09-01T01:40:35.936Z,10.95
2022-09-01T01:43:03.722Z,10.98
2022-09-01T01:45:30.900Z,10.95
2022-09-01T01:47:57.809Z,10.90
2022-09-01T01:50:29.927Z,10.89
2022-09-01T01:52:58.894Z,10.91
2022-09-01T01:55:30.842Z,10.93
2022-09-01T01:57:59.199Z,10.96
2022-09-01T02:00:34.237Z,10.95
2022-09-01T02:03:01.116Z,10.95
2022-09-01T02:05:32.254Z,10.95
2022-09-01T02:08:08.130Z,10.96
2022-09-01T02:10:40.686Z,10.96
2022-09-01T02:13:07.755Z,10.93
2022-09-01T02:15:44.528Z,10.95
2022-09-01T02:18:27.163Z,10.98
2022-09-01T02:20:55.234Z,10.99
2022-09-01T02:23:28.812Z,11.00
2022-09-01T02:26:15.734Z,11.03
2022-09-01T02:28:50.916Z,11.04
2022-09-01T02:31:21.046Z,11.08
2022-09-01T02:33:48.766Z,11.08
2022-09-01T02:36:19.696Z,11.11
2022-09-01T02:38:53.079Z,11.13
2022-09-01T02:41:23.765Z,11.13
2022-09-01T02:43:50.892Z,11.14
2022-09-01T02:46:20.374Z,11.13
2022-09-01T02:48:51.493Z,11.10
2022-09-01T02:51:20.255Z,11.08
2022-09-01T02:53:49.833Z,11.09
2022-09-01T02:56:18.262Z,11.10
2022-09-01T02:58:46.431Z,11.11
2022-09-01T03:01:27.434Z,11.13
2022-09-01T03:03:57.696Z,11.12
2022-09-01T03:06:24.866Z,11.10
2022-09-01T03:08:59.759Z,11.08
2022-09-01T03:11:29.558Z,11.03
2022-09-01T03:13:56.354Z,10.93
2022-09-01T03:16:23.051Z,10.85
2022-09-01T03:18:50.667Z,10.81
2022-09-01T03:21:17.778Z,10.83
2022-09-01T03:23:46.408Z,10.84
2022-09-01T03:26:14.193Z,10.84
2022-09-01T03:28:41.260Z,10.85
2022-09-01T03:31:09.097Z,10.85
2022-09-01T03:33:36.899Z,10.82
2022-09-01T03:36:05.065Z,10.82
2022-09-01T03:38:44.038Z,10.83
2022-09-01T03:41:13.404Z,10.80
2022-09-01T03:43:46.870Z,10.77
2022-09-01T03:46:20.309Z,10.73
2022-09-01T03:49:01.073Z,10.71
2022-09-01T03:51:31.160Z,10.68
2022-09-01T03:53:59.512Z,10.66
2022-09-01T03:56:28.525Z,10.64
2022-09-01T03:58:57.870Z,10.59
2022-09-01T04:01:27.081Z,10.52
2022-09-01T04:03:54.031Z,10.49
2022-09-01T04:06:24.109Z,10.46
2022-09-01T04:08:55.429Z,10.42
2022-09-01T04:11:24.260Z,10.40
2022-09-01T04:13:52.379Z,10.42
2022-09-01T04:16:44.962Z,10.37
2022-09-01T04:19:20.769Z,10.26
2022-09-01T04:21:52.353Z,10.16
2022-09-01T04:24:19.643Z,10.09
2022-09-01T04:26:48.850Z,10.07
2022-09-01T04:29:19.837Z,10.12
2022-09-01T04:31:49.214Z,10.16
2022-09-01T04:34:16.367Z,10.20
2022-09-01T04:36:45.094Z,10.22
2022-09-01T04:39:13.410Z,10.26
2022-09-01T04:41:48.113Z,10.29
2022-09-01T04:44:17.888Z,10.32
2022-09-01T04:46:50.875Z,10.33
2022-09-01T04:49:22.024Z,10.36
2022-09-01T04:51:53.968Z,10.40
2022-09-01T04:54:22.859Z,10.48
2022-09-01T04:56:51.446Z,10.53
2022-09-01T04:59:23.044Z,10.54
2022-09-01T05:01:50.961Z,10.57
2022-09-01T05:04:23.228Z,10.63
2022-09-01T05:07:00.800Z,10.68
2022-09-01T05:09:30.319Z,10.74
2022-09-01T05:11:58.321Z,10.76
2022-09-01T05:14:25.698Z,10.77
2022-09-01T05:16:58.933Z,10.78
2022-09-01T05:19:29.107Z,10.82
2022-09-01T05:21:57.963Z,10.89
2022-09-01T05:24:30.356Z,10.94
2022-09-01T05:26:57.814Z,10.99
2022-09-01T05:29:27.773Z,11.03
2022-09-01T05:31:55.702Z,11.07
2022-09-01T05:34:27.027Z,11.11
2022-09-01T05:36:57.994Z,11.17
2022-09-01T05:39:25.535Z,11.18
2022-09-01T05:41:54.027Z,11.23
2022-09-01T05:44:23.004Z,11.25
2022-09-01T05:46:50.632Z,11.31
2022-09-01T05:49:18.695Z,11.36
2022-09-01T05:51:51.899Z,11.42
2022-09-01T05:54:27.498Z,11.49
2022-09-01T05:57:02.154Z,11.57
2022-09-01T05:59:35.912Z,11.65
2022-09-01T06:02:02.944Z,11.72
2022-09-01T06:04:30.371Z,11.78
2022-09-01T06:07:06.064Z,11.84
2022-09-01T06:09:46.970Z,11.90
2022-09-01T06:12:20.814Z,11.95
2022-09-01T06:14:52.246Z,11.99
2022-09-01T06:17:23.248Z,12.04
2022-09-01T06:19:50.529Z,12.09
2022-09-01T06:22:20.862Z,12.17
2022-09-01T06:24:54.504Z,12.27
2022-09-01T06:27:23.613Z,12.35
2022-09-01T06:29:55.310Z,12.44
2022-09-01T06:32:22.186Z,12.53
2022-09-01T06:34:51.668Z,12.60
2022-09-01T06:37:23.019Z,12.67
2022-09-01T06:39:50.445Z,12.74
2022-09-01T06:42:17.813Z,12.80
2022-09-01T06:44:48.573Z,12.84
2022-09-01T06:47:15.671Z,12.86
2022-09-01T06:49:44.925Z,12.89
2022-09-01T06:52:11.928Z,12.94
2022-09-01T06:54:39.736Z,12.97
2022-09-01T06:59:54.383Z,13.06
2022-09-01T07:02:24.447Z,13.11
2022-09-01T07:04:54.270Z,13.19
2022-09-01T07:10:24.855Z,13.32
2022-09-01T07:13:10.354Z,13.38
2022-09-01T07:18:29.284Z,13.47
2022-09-01T07:24:05.939Z,13.56
2022-09-01T07:26:35.810Z,13.61
2022-09-01T07:29:06.491Z,13.65
2022-09-01T07:34:41.922Z,13.73
2022-09-01T07:38:47.285Z,13.78
2022-09-01T07:42:58.904Z,13.52
2022-09-01T07:45:35.294Z,13.95
2022-09-01T07:48:06.606Z,14.00
2022-09-01T07:53:36.297Z,14.05
2022-09-01T07:56:09.621Z,14.15
2022-09-01T07:58:38.659Z,14.25
2022-09-01T08:01:11.432Z,14.31
2022-09-01T08:03:40.027Z,14.36
2022-09-01T08:06:09.309Z,14.47
2022-09-01T08:08:37.938Z,14.56
2022-09-01T08:11:05.122Z,14.68
2022-09-01T08:13:38.865Z,14.76
2022-09-01T08:16:15.836Z,15.43
2022-09-01T08:18:48.752Z,16.38
2022-09-01T08:21:17.287Z,16.75
2022-09-01T08:23:44.339Z,17.17
2022-09-01T08:26:14.607Z,17.85
2022-09-01T08:28:54.535Z,18.03
2022-09-01T08:31:23.335Z,17.80
2022-09-01T08:33:50.799Z,17.47
2022-09-01T08:36:22.885Z,17.08
2022-09-01T08:38:51.298Z,16.55
2022-09-01T08:41:41.139Z,15.98
2022-09-01T08:44:27.568Z,15.56
2022-09-01T08:47:13.011Z,15.18
2022-09-01T08:49:46.966Z,14.92
2022-09-01T08:52:37.174Z,14.64
2022-09-01T08:55:05.591Z,14.43
2022-09-01T08:57:44.276Z,14.32
2022-09-01T09:00:15.437Z,14.21
2022-09-01T09:02:58.543Z,14.09
2022-09-01T09:05:33.930Z,13.92
2022-09-01T09:08:25.161Z,13.91
2022-09-01T09:11:03.857Z,13.93
2022-09-01T09:14:00.806Z,13.94
2022-09-01T09:16:35.826Z,14.04
2022-09-01T09:19:11.338Z,14.28
2022-09-01T09:21:40.182Z,14.98
2022-09-01T09:24:07.577Z,15.71
2022-09-01T09:26:49.327Z,15.82
2022-09-01T09:29:16.169Z,15.78
2022-09-01T09:31:52.506Z,15.86
2022-09-01T09:34:34.579Z,15.81
2022-09-01T09:37:23.310Z,15.76
2022-09-01T09:40:15.933Z,15.68
2022-09-01T09:43:03.154Z,15.59
2022-09-01T09:45:33.951Z,15.55
2022-09-01T09:48:06.058Z,15.60
2022-09-01T09:50:38.643Z,15.78
2022-09-01T09:53:16.339Z,15.98
2022-09-01T09:55:55.873Z,16.17
2022-09-01T09:58:26.946Z,16.31
2022-09-01T10:01:01.239Z,16.44
2022-09-01T10:04:01.717Z,16.47
2022-09-01T10:06:47.725Z,16.46
2022-09-01T10:09:37.118Z,16.37
2022-09-01T10:12:05.657Z,16.26
2022-09-01T10:14:53.038Z,16.37
2022-09-01T10:17:32.806Z,16.52
2022-09-01T10:20:11.650Z,16.61
2022-09-01T10:22:39.864Z,16.57
2022-09-01T10:25:10.388Z,16.52
2022-09-01T10:27:41.670Z,16.44
2022-09-01T10:30:20.709Z,16.31
2022-09-01T10:32:56.245Z,16.25
2022-09-01T10:35:24.048Z,16.22
2022-09-01T10:37:52.266Z,16.21
2022-09-01T10:40:31.758Z,16.17
2022-09-01T10:43:37.249Z,16.15
2022-09-01T10:46:15.597Z,16.20
2022-09-01T10:48:51.863Z,16.26
2022-09-01T10:51:28.044Z,16.35
2022-09-01T10:54:01.855Z,16.42
2022-09-01T10:56:51.279Z,16.48
2022-09-01T10:59:31.653Z,16.50
2022-09-01T11:02:27.574Z,16.50
2022-09-01T11:04:55.338Z,16.47
2022-09-01T11:07:50.731Z,16.49
2022-09-01T11:10:35.332Z,16.58
2022-09-01T11:13:26.325Z,16.74
2022-09-01T11:15:53.734Z,16.97
2022-09-01T11:18:27.796Z,17.11
2022-09-01T11:20:56.303Z,17.18
2022-09-01T11:23:28.050Z,17.23
2022-09-01T11:28:47.384Z,17.20
2022-09-01T11:31:28.697Z,17.20
2022-09-01T11:34:16.358Z,17.19
2022-09-01T11:36:51.161Z,17.23
2022-09-01T11:39:19.234Z,17.30
2022-09-01T11:42:03.545Z,17.37
2022-09-01T11:44:46.829Z,17.47
2022-09-01T11:47:18.346Z,17.63
2022-09-01T11:49:55.466Z,17.67
2022-09-01T11:52:25.071Z,17.58
2022-09-01T11:54:51.935Z,17.57
2022-09-01T11:57:19.864Z,17.58
2022-09-01T11:59:46.569Z,17.65
2022-09-01T12:02:29.728Z,17.66
2022-09-01T12:04:57.342Z,17.66
2022-09-01T12:07:26.023Z,17.66
2022-09-01T12:09:55.512Z,17.61
2022-09-01T12:12:44.725Z,17.51
2022-09-01T12:15:24.358Z,17.50
2022-09-01T12:18:08.885Z,17.49
2022-09-01T12:20:44.279Z,17.51
2022-09-01T12:23:25.755Z,17.57
2022-09-01T12:26:01.486Z,17.64
2022-09-01T12:28:35.243Z,17.68
2022-09-01T12:31:07.349Z,17.67
2022-09-01T12:33:35.005Z,17.58
2022-09-01T12:36:36.285Z,17.56
2022-09-01T12:39:18.394Z,17.31
2022-09-01T12:41:48.602Z,17.14
2022-09-01T12:44:34.603Z,17.09
2022-09-01T12:47:10.319Z,17.19
2022-09-01T12:49:50.668Z,17.37
2022-09-01T12:52:20.039Z,17.55
2022-09-01T12:54:49.628Z,17.51
2022-09-01T12:57:30.281Z,17.36
2022-09-01T13:00:49.229Z,17.56
2022-09-01T13:03:20.139Z,17.77
2022-09-01T13:05:59.372Z,17.86
2022-09-01T13:08:30.378Z,17.92
2022-09-01T13:11:03.529Z,17.94
2022-09-01T13:13:30.771Z,17.89
2022-09-01T13:16:08.660Z,17.80
2022-09-01T13:19:10.419Z,17.71
2022-09-01T13:21:22.094Z,17.63
2022-09-01T13:23:50.754Z,17.47
2022-09-01T13:26:17.886Z,17.27
2022-09-01T13:28:46.066Z,17.01
2022-09-01T13:31:29.348Z,16.72
2022-09-01T13:34:21.657Z,16.43
2022-09-01T13:36:46.235Z,16.24
2022-09-01T13:39:15.463Z,16.11
2022-09-01T13:41:42.459Z,16.00
2022-09-01T13:44:10.495Z,15.93
2022-09-01T13:46:59.004Z,15.90
2022-09-01T13:52:12.021Z,15.98
2022-09-01T13:54:38.733Z,16.02
2022-09-01T13:57:05.538Z,16.09
2022-09-01T13:59:33.019Z,16.10
2022-09-01T14:02:01.036Z,16.15
2022-09-01T14:04:27.837Z,16.14
2022-09-01T14:06:55.174Z,16.14
2022-09-01T14:09:22.010Z,16.00
2022-09-01T14:11:50.947Z,15.93
2022-09-01T14:14:19.413Z,15.95
2022-09-01T14:16:55.801Z,15.97
2022-09-01T14:19:28.255Z,16.01
2022-09-01T14:21:57.386Z,15.88
2022-09-01T14:24:24.122Z,15.61
2022-09-01T14:26:56.661Z,15.33
2022-09-01T14:29:25.639Z,15.21
2022-09-01T14:31:57.135Z,15.28
2022-09-01T14:34:31.395Z,15.39
2022-09-01T14:36:58.136Z,15.48
2022-09-01T14:39:33.958Z,15.56
2022-09-01T14:42:04.238Z,15.61
2022-09-01T14:44:38.467Z,15.63
2022-09-01T14:47:12.469Z,15.68
2022-09-01T14:49:47.857Z,15.73
2022-09-01T14:52:18.650Z,15.75
2022-09-01T14:54:47.817Z,15.79
2022-09-01T14:57:37.007Z,15.85
2022-09-01T15:00:10.483Z,15.95
2022-09-01T15:02:38.339Z,16.02
2022-09-01T15:05:06.012Z,16.06
2022-09-01T15:07:32.669Z,16.07
2022-09-01T15:09:59.634Z,16.04
2022-09-01T15:12:31.183Z,16.03
2022-09-01T15:14:59.544Z,16.02
2022-09-01T15:17:27.414Z,16.04
2022-09-01T15:19:54.899Z,16.05
2022-09-01T15:22:21.716Z,16.06
2022-09-01T15:24:48.367Z,15.97
2022-09-01T15:27:15.138Z,15.88
2022-09-01T15:29:51.342Z,15.88
2022-09-01T15:32:28.017Z,15.87
2022-09-01T15:34:55.864Z,15.83
2022-09-01T15:37:22.557Z,15.81
2022-09-01T15:39:49.243Z,15.80
2022-09-01T15:42:17.418Z,15.79
2022-09-01T15:44:44.323Z,15.78
2022-09-01T15:47:10.976Z,15.77
2022-09-01T15:49:37.628Z,15.75
2022-09-01T15:52:04.284Z,15.76
2022-09-01T15:54:31.019Z,15.74
2022-09-01T15:56:57.878Z,15.75
2022-09-01T15:59:24.722Z,15.76
2022-09-01T16:01:54.128Z,15.73
2022-09-01T16:04:25.480Z,15.73
2022-09-01T16:06:56.618Z,15.76
2022-09-01T16:09:25.500Z,15.81
2022-09-01T16:11:53.395Z,15.84
2022-09-01T16:14:23.602Z,15.82
2022-09-01T16:17:05.594Z,15.80
2022-09-01T16:19:43.849Z,15.75
2022-09-01T16:22:30.875Z,15.67
2022-09-01T16:25:01.884Z,15.43
2022-09-01T16:27:49.304Z,15.30
2022-09-01T16:30:22.467Z,15.25
2022-09-01T16:32:49.812Z,15.17
2022-09-01T16:35:19.766Z,15.07
2022-09-01T16:38:16.872Z,15.02
2022-09-01T16:41:09.940Z,14.99
2022-09-01T16:44:09.747Z,14.95
2022-09-01T16:47:05.378Z,14.92
2022-09-01T16:50:19.708Z,14.92
2022-09-01T16:53:16.746Z,14.88
2022-09-01T16:56:09.734Z,14.85
2022-09-01T16:59:14.040Z,14.82
2022-09-01T17:02:18.287Z,14.81
2022-09-01T17:04:47.997Z,14.77
2022-09-01T17:07:29.752Z,14.73
2022-09-01T17:10:04.057Z,14.63
2022-09-01T17:12:56.057Z,14.50
2022-09-01T17:15:39.791Z,14.44
2022-09-01T17:18:21.711Z,14.41
2022-09-01T17:21:18.096Z,14.26
2022-09-01T17:23:59.961Z,14.14
2022-09-01T17:26:29.247Z,14.10
2022-09-01T17:28:57.927Z,14.10
2022-09-01T17:31:56.035Z,14.11
2022-09-01T17:34:38.805Z,14.09
2022-09-01T17:37:14.350Z,13.98
2022-09-01T17:39:54.404Z,13.96
2022-09-01T17:43:12.057Z,13.95
2022-09-01T17:45:57.005Z,13.80
2022-09-01T17:48:53.326Z,13.57
2022-09-01T17:51:36.847Z,13.40
2022-09-01T17:54:35.176Z,13.31
2022-09-01T17:57:09.170Z,13.27
2022-09-01T17:59:52.754Z,13.26
2022-09-01T18:02:58.896Z,13.11
2022-09-01T18:05:26.735Z,13.00
2022-09-01T18:08:20.862Z,12.91
2022-09-01T18:11:11.591Z,12.83
2022-09-01T18:13:53.324Z,12.78
2022-09-01T18:16:49.458Z,12.81
2022-09-01T18:19:28.829Z,12.84
2022-09-01T18:22:00.929Z,12.83
2022-09-01T18:24:55.434Z,12.85
2022-09-01T18:27:27.787Z,12.85
2022-09-01T18:29:57.033Z,12.89
2022-09-01T18:32:35.951Z,12.83
2022-09-01T18:35:11.678Z,12.74
2022-09-01T18:37:50.556Z,12.65
2022-09-01T18:40:34.123Z,12.55
2022-09-01T18:43:23.727Z,12.44
2022-09-01T18:46:03.782Z,12.32
2022-09-01T18:48:42.738Z,12.23
2022-09-01T18:51:12.054Z,12.21
2022-09-01T18:54:24.558Z,12.12
2022-09-01T18:57:02.590Z,12.03
2022-09-01T18:59:49.712Z,11.95
2022-09-01T19:02:43.816Z,11.87
2022-09-01T19:05:16.673Z,11.81
2022-09-01T19:07:58.622Z,11.80
2022-09-01T19:10:58.546Z,11.80
2022-09-01T19:13:31.633Z,11.82
2022-09-01T19:16:23.707Z,11.82
2022-09-01T19:19:13.662Z,11.81
2022-09-01T19:21:43.795Z,11.82
2022-09-01T19:24:13.569Z,11.81
2022-09-01T19:26:47.534Z,11.80
2022-09-01T19:29:19.095Z,11.83
2022-09-01T19:31:49.275Z,11.79
2022-09-01T19:34:20.357Z,11.71
2022-09-01T19:36:55.468Z,11.58
2022-09-01T19:39:44.681Z,11.48
2022-09-01T19:42:29.927Z,11.44
2022-09-01T19:45:29.842Z,11.43
2022-09-01T19:48:02.624Z,11.46
2022-09-01T19:50:39.255Z,11.49
2022-09-01T19:53:43.358Z,11.50
2022-09-01T19:56:16.865Z,11.51
2022-09-01T19:58:59.122Z,11.56
2022-09-01T20:01:59.880Z,11.60
2022-09-01T20:04:38.789Z,11.66
2022-09-01T20:07:10.054Z,11.68
2022-09-01T20:09:53.946Z,11.69
2022-09-01T20:12:29.414Z,11.68
2022-09-01T20:15:13.254Z,11.61
2022-09-01T20:17:42.970Z,11.54
2022-09-01T20:20:11.545Z,11.51
2022-09-01T20:22:50.196Z,11.46
2022-09-01T20:25:24.129Z,11.41
2022-09-01T20:27:50.770Z,11.34
2022-09-01T20:30:27.502Z,11.33
2022-09-01T20:33:06.072Z,11.31
2022-09-01T20:36:07.763Z,11.31
2022-09-01T20:39:16.284Z,11.26
2022-09-01T20:41:52.751Z,11.19
2022-09-01T20:44:31.626Z,11.13
2022-09-01T20:46:58.259Z,11.11
2022-09-01T20:49:25.000Z,11.17
2022-09-01T20:52:19.605Z,11.19
2022-09-01T20:54:53.642Z,11.20
2022-09-01T20:57:35.335Z,11.21
2022-09-01T21:00:15.512Z,11.19
2022-09-01T21:03:33.675Z,11.19
2022-09-01T21:06:10.475Z,11.13
2022-09-01T21:08:49.064Z,11.10
2022-09-01T21:11:15.650Z,11.08
2022-09-01T21:14:06.935Z,11.04
2022-09-01T21:17:00.035Z,10.93
2022-09-01T21:19:44.307Z,10.79
2022-09-01T21:22:16.458Z,10.75
2022-09-01T21:24:45.459Z,10.76
2022-09-01T21:27:17.389Z,10.82
2022-09-01T21:29:50.498Z,10.87
2022-09-01T21:32:17.464Z,10.91
2022-09-01T21:34:45.293Z,10.94
2022-09-01T21:37:12.946Z,10.94
2022-09-01T21:39:40.127Z,10.84
2022-09-01T21:42:09.500Z,10.75
2022-09-01T21:44:37.047Z,10.65
2022-09-01T21:47:04.016Z,10.59
2022-09-01T21:49:30.659Z,10.57
2022-09-01T21:51:59.987Z,10.53
2022-09-01T21:54:26.730Z,10.49
2022-09-01T21:56:53.511Z,10.48
2022-09-01T21:59:20.622Z,10.46
2022-09-01T22:01:48.246Z,10.44
2022-09-01T22:04:15.539Z,10.41
2022-09-01T22:06:42.553Z,10.39
2022-09-01T22:09:20.614Z,10.36
2022-09-01T22:11:49.093Z,10.36
2022-09-01T22:14:16.051Z,10.34
2022-09-01T22:16:43.533Z,10.33
2022-09-01T22:19:10.239Z,10.32
2022-09-01T22:21:38.067Z,10.29
2022-09-01T22:24:06.255Z,10.30
2022-09-01T22:26:34.117Z,10.28
2022-09-01T22:29:02.729Z,10.26
2022-09-01T22:31:33.712Z,10.26
2022-09-01T22:34:01.241Z,10.31
2022-09-01T22:36:29.597Z,10.38
2022-09-01T22:38:58.899Z,10.35
2022-09-01T22:41:28.015Z,10.28
2022-09-01T22:43:55.096Z,10.22
2022-09-01T22:46:22.506Z,10.21
2022-09-01T22:48:49.670Z,10.28
2022-09-01T22:51:17.018Z,10.37
2022-09-01T22:53:45.698Z,10.37
2022-09-01T22:56:15.727Z,10.38
2022-09-01T22:58:42.674Z,10.44
2022-09-01T23:01:14.995Z,10.53
2022-09-01T23:03:43.192Z,10.61
2022-09-01T23:06:21.879Z,10.66
2022-09-01T23:08:58.962Z,10.73
2022-09-01T23:11:26.771Z,10.80
2022-09-01T23:13:54.086Z,10.82
2022-09-01T23:16:22.660Z,10.89
2022-09-01T23:18:50.274Z,10.94
2022-09-01T23:21:20.687Z,10.97
2022-09-01T23:23:48.014Z,11.00
2022-09-01T23:26:19.889Z,11.01
2022-09-01T23:28:46.900Z,11.01
2022-09-01T23:31:24.743Z,10.99
2022-09-01T23:33:52.727Z,11.01
2022-09-01T23:36:23.854Z,11.03
2022-09-01T23:38:51.412Z,11.05
2022-09-01T23:41:23.329Z,11.08
2022-09-01T23:43:53.995Z,11.08
2022-09-01T23:46:26.606Z,11.11
2022-09-01T23:48:53.420Z,11.12
2022-09-01T23:51:21.066Z,11.12
2022-09-01T23:53:48.480Z,11.11
2022-09-01T23:56:21.171Z,11.09
2022-09-01T23:58:48.941Z,11.10
